Time;durP1;ratioP1;P1;durP2;ratioP2;P2;SDS_P1;SDS_P2;PMS_P1;PMS_P2;Temp;Humidity;BMP_temperature;BMP_pressure;BME280_temperature;BME280_humidity;BME280_pressure;Samples;Min_cycle;Max_cycle;Signal;HPM_P1;HPM_P2
2022/03/11 00:01:53;;;;;;;17.02;6.30;;;9.10;73.90;;;;;;5028224;28;20071;-62
2022/03/11 00:04:19;;;;;;;17.08;7.03;;;9.10;74.00;;;;;;5052443;28;20025;-63
2022/03/11 00:06:44;;;;;;;16.42;7.25;;;9.10;74.10;;;;;;5046223;28;20088;-60
2022/03/11 00:09:10;;;;;;;17.13;7.30;;;9.00;74.30;;;;;;5033025;28;20034;-61
2022/03/11 00:11:36;;;;;;;15.60;5.97;;;9.00;74.20;;;;;;5032706;28;20370;-61
2022/03/11 00:14:02;;;;;;;17.38;6.93;;;9.00;74.80;;;;;;5025771;28;20045;-62
2022/03/11 00:16:27;;;;;;;17.88;6.35;;;9.00;74.20;;;;;;5020156;28;20036;-62
2022/03/11 00:18:53;;;;;;;14.40;5.70;;;9.00;74.30;;;;;;5045809;28;20124;-62
2022/03/11 00:21:19;;;;;;;14.70;5.75;;;9.00;74.30;;;;;;5042379;28;20034;-62
2022/03/11 00:23:44;;;;;;;15.73;6.00;;;9.00;74.20;;;;;;5037507;28;20395;-62
2022/03/11 00:26:10;;;;;;;17.65;6.78;;;9.00;74.10;;;;;;5052614;28;20079;-62
2022/03/11 00:28:37;;;;;;;14.38;6.18;;;8.90;74.20;;;;;;5045257;28;20086;-62
2022/03/11 00:31:04;;;;;;;15.13;5.85;;;8.90;74.40;;;;;;5026694;28;20044;-62
2022/03/11 00:33:31;;;;;;;13.00;6.03;;;8.90;74.40;;;;;;5035992;28;20017;-62
2022/03/11 00:35:56;;;;;;;17.85;6.72;;;8.90;74.50;;;;;;5035203;28;20044;-62
2022/03/11 00:38:22;;;;;;;15.85;6.30;;;8.90;74.80;;;;;;5035288;28;20017;-62
2022/03/11 00:40:48;;;;;;;16.25;6.70;;;8.80;74.90;;;;;;5035646;28;20022;-63
2022/03/11 00:43:13;;;;;;;16.38;6.75;;;8.80;75.40;;;;;;5036128;28;20078;-62
2022/03/11 00:45:39;;;;;;;15.70;5.82;;;8.80;75.40;;;;;;5036060;28;20359;-62
2022/03/11 00:48:04;;;;;;;14.88;6.18;;;8.80;75.20;;;;;;5035764;28;20045;-63
2022/03/11 00:50:30;;;;;;;15.20;5.43;;;8.80;75.10;;;;;;5035025;28;20030;-62
2022/03/11 00:52:55;;;;;;;14.63;6.25;;;8.80;75.10;;;;;;5035645;28;20115;-62
2022/03/11 00:55:21;;;;;;;13.35;5.57;;;8.80;75.30;;;;;;5034253;28;20477;-62
2022/03/11 00:57:46;;;;;;;15.18;6.20;;;8.70;75.30;;;;;;5035137;28;20033;-62
2022/03/11 01:00:13;;;;;;;15.13;6.38;;;8.70;75.30;;;;;;5033530;28;20057;-61
2022/03/11 01:02:39;;;;;;;18.00;6.75;;;8.70;75.40;;;;;;5034014;28;20049;-61
2022/03/11 01:05:06;;;;;;;15.60;6.32;;;8.70;75.50;;;;;;5034181;28;20079;-62
2022/03/11 01:07:32;;;;;;;16.35;6.55;;;8.70;75.60;;;;;;5035095;28;20124;-62
2022/03/11 01:09:58;;;;;;;16.48;5.97;;;8.70;75.90;;;;;;5033052;28;20109;-62
2022/03/11 01:12:24;;;;;;;15.57;6.15;;;8.60;75.70;;;;;;5028522;28;20592;-62
2022/03/11 01:14:49;;;;;;;18.30;6.85;;;8.60;75.90;;;;;;5034779;28;20030;-62
2022/03/11 01:17:15;;;;;;;11.95;5.80;;;8.60;76.00;;;;;;5034933;28;20282;-63
2022/03/11 01:19:41;;;;;;;14.73;5.80;;;8.60;76.10;;;;;;5033313;28;20064;-63
2022/03/11 01:22:06;;;;;;;17.38;7.15;;;8.60;76.40;;;;;;5033896;28;20029;-62
2022/03/11 01:24:32;;;;;;;17.45;7.10;;;8.60;76.60;;;;;;5034103;28;20049;-62
2022/03/11 01:26:58;;;;;;;18.05;6.65;;;8.50;76.60;;;;;;5034527;28;20034;-61
2022/03/11 01:29:24;;;;;;;15.48;6.38;;;8.50;76.70;;;;;;5031301;28;20029;-62
2022/03/11 01:31:51;;;;;;;13.38;6.25;;;8.40;76.80;;;;;;5035565;28;20031;-62
2022/03/11 01:34:17;;;;;;;15.38;6.70;;;8.40;77.00;;;;;;5033161;28;20109;-62
2022/03/11 01:36:43;;;;;;;20.15;7.03;;;8.40;77.00;;;;;;5033909;28;20478;-64
2022/03/11 01:39:09;;;;;;;21.83;7.32;;;8.40;77.10;;;;;;5031971;28;20049;-63
2022/03/11 01:41:36;;;;;;;18.23;6.88;;;8.40;77.10;;;;;;5033582;28;20025;-63
2022/03/11 01:44:07;;;;;;;16.00;6.30;;;8.30;77.30;;;;;;5033564;28;20037;-62
2022/03/11 01:46:33;;;;;;;15.93;6.25;;;8.30;77.30;;;;;;5035167;28;20080;-64
2022/03/11 01:49:01;;;;;;;16.88;7.32;;;8.30;77.60;;;;;;5032078;28;20428;-66
2022/03/11 01:51:29;;;;;;;16.73;6.30;;;8.20;78.20;;;;;;5033136;28;20021;-64
2022/03/11 01:53:56;;;;;;;17.45;7.20;;;8.20;77.70;;;;;;5033301;28;20029;-63
2022/03/11 01:56:23;;;;;;;17.05;6.97;;;8.10;77.80;;;;;;5033277;28;20026;-62
2022/03/11 01:58:51;;;;;;;17.90;6.70;;;8.10;77.80;;;;;;5032207;28;20060;-65
2022/03/11 02:01:17;;;;;;;16.52;6.82;;;8.10;77.80;;;;;;5032263;28;20367;-65
2022/03/11 02:03:43;;;;;;;20.08;7.35;;;8.10;78.50;;;;;;5033633;28;20112;-62
2022/03/11 02:06:09;;;;;;;18.95;7.68;;;8.00;77.80;;;;;;5034085;28;20100;-62
2022/03/11 02:08:35;;;;;;;19.20;7.38;;;8.00;77.80;;;;;;5032259;28;20136;-62
2022/03/11 02:11:02;;;;;;;19.23;8.07;;;7.90;77.80;;;;;;5033441;28;20497;-62
2022/03/11 02:13:28;;;;;;;16.27;6.25;;;7.90;77.70;;;;;;5033806;28;20132;-62
2022/03/11 02:15:53;;;;;;;17.58;7.20;;;7.90;77.90;;;;;;5031756;28;20081;-62
2022/03/11 02:18:19;;;;;;;16.25;6.30;;;7.90;77.80;;;;;;5027013;28;20052;-62
2022/03/11 02:20:48;;;;;;;16.65;6.65;;;7.90;77.80;;;;;;5014046;28;20037;-62
2022/03/11 02:23:15;;;;;;;14.75;6.25;;;7.90;78.00;;;;;;5013688;28;20061;-62
2022/03/11 02:25:41;;;;;;;18.25;6.72;;;7.90;78.00;;;;;;5022123;28;20072;-62
2022/03/11 02:28:07;;;;;;;17.55;6.68;;;7.90;77.90;;;;;;5033632;28;20095;-63
2022/03/11 02:30:32;;;;;;;17.05;6.82;;;7.80;78.00;;;;;;5047183;28;20112;-62
2022/03/11 02:32:58;;;;;;;15.55;6.95;;;7.80;78.00;;;;;;5042671;28;20034;-62
2022/03/11 02:35:23;;;;;;;18.58;7.03;;;7.80;78.00;;;;;;5025558;28;20036;-62
2022/03/11 02:37:49;;;;;;;17.63;7.03;;;7.80;78.60;;;;;;5026085;28;20076;-63
2022/03/11 02:40:14;;;;;;;16.88;6.57;;;7.80;78.10;;;;;;5032969;28;20201;-62
2022/03/11 02:42:40;;;;;;;16.75;6.80;;;7.80;78.00;;;;;;5033693;28;20104;-62
2022/03/11 02:45:07;;;;;;;18.58;6.97;;;7.80;78.10;;;;;;5032492;28;20481;-62
2022/03/11 02:47:33;;;;;;;17.25;7.07;;;7.80;78.10;;;;;;5033297;28;20493;-62
2022/03/11 02:49:58;;;;;;;15.70;6.28;;;7.80;78.40;;;;;;5024617;28;20113;-62
2022/03/11 02:52:26;;;;;;;17.58;6.80;;;7.80;78.40;;;;;;5018865;28;20113;-63
2022/03/11 02:54:52;;;;;;;18.33;7.20;;;7.70;78.50;;;;;;5032016;28;20108;-62
2022/03/11 02:57:18;;;;;;;17.55;7.38;;;7.70;78.60;;;;;;5032650;28;20041;-63
2022/03/11 02:59:44;;;;;;;16.35;6.70;;;7.70;78.80;;;;;;5033050;28;20037;-61
2022/03/11 03:02:10;;;;;;;18.60;7.47;;;7.60;78.80;;;;;;5032220;28;20057;-62
2022/03/11 03:04:36;;;;;;;17.58;6.72;;;7.60;78.80;;;;;;5031511;28;20056;-61
2022/03/11 03:07:01;;;;;;;16.65;7.22;;;7.60;78.90;;;;;;5031616;28;20040;-61
2022/03/11 03:09:27;;;;;;;19.45;8.18;;;7.60;79.10;;;;;;5047810;28;20025;-61
2022/03/11 03:11:52;;;;;;;17.83;6.97;;;7.60;79.10;;;;;;5032960;28;20026;-62
2022/03/11 03:14:19;;;;;;;15.15;6.40;;;7.50;79.20;;;;;;5032892;28;20377;-62
2022/03/11 03:16:45;;;;;;;20.88;7.28;;;7.50;79.30;;;;;;5031190;28;20037;-62
2022/03/11 03:19:10;;;;;;;16.80;7.05;;;7.50;79.50;;;;;;5032629;28;20436;-62
2022/03/11 03:21:36;;;;;;;18.38;6.93;;;7.40;79.60;;;;;;5032900;28;20029;-64
2022/03/11 03:24:01;;;;;;;16.25;6.07;;;7.40;79.70;;;;;;5031718;28;20040;-61
2022/03/11 03:26:27;;;;;;;15.40;7.03;;;7.40;79.80;;;;;;5031596;28;20060;-62
2022/03/11 03:28:52;;;;;;;16.95;7.10;;;7.40;79.80;;;;;;5031060;28;20096;-62
2022/03/11 03:31:19;;;;;;;19.10;7.28;;;7.30;80.00;;;;;;5031136;28;20045;-62
2022/03/11 03:33:45;;;;;;;17.33;7.07;;;7.30;79.90;;;;;;5031729;28;20326;-62
2022/03/11 03:36:11;;;;;;;17.92;7.13;;;7.30;79.90;;;;;;5016704;28;20038;-62
2022/03/11 03:38:37;;;;;;;17.13;7.50;;;7.30;80.10;;;;;;5030596;28;20462;-61
2022/03/11 03:41:03;;;;;;;16.30;6.15;;;7.30;80.20;;;;;;5032928;28;20121;-63
2022/03/11 03:43:29;;;;;;;18.65;7.40;;;7.20;80.40;;;;;;5032380;28;20025;-61
2022/03/11 03:45:54;;;;;;;18.42;7.82;;;7.30;80.50;;;;;;5031283;28;20037;-61
2022/03/11 03:48:20;;;;;;;19.73;7.97;;;7.20;80.60;;;;;;5032083;28;20125;-62
2022/03/11 03:50:45;;;;;;;18.35;7.35;;;7.20;80.60;;;;;;5032844;28;20052;-61
2022/03/11 03:53:11;;;;;;;19.35;7.65;;;7.20;80.70;;;;;;5032598;28;20044;-61
2022/03/11 03:55:36;;;;;;;15.15;6.22;;;7.10;80.80;;;;;;5032724;28;20041;-62
2022/03/11 03:58:02;;;;;;;16.40;7.50;;;7.10;80.80;;;;;;5018161;28;20034;-63
2022/03/11 04:00:28;;;;;;;19.42;7.32;;;7.10;80.90;;;;;;5032873;28;20032;-62
2022/03/11 04:02:53;;;;;;;19.92;7.10;;;7.10;81.30;;;;;;5031380;28;20029;-63
2022/03/11 04:05:19;;;;;;;17.77;7.10;;;7.10;81.20;;;;;;5034048;28;20155;-62
2022/03/11 04:07:46;;;;;;;15.52;6.30;;;7.10;81.40;;;;;;5035663;28;20037;-62
2022/03/11 04:10:13;;;;;;;18.63;8.13;;;7.00;81.30;;;;;;5035905;28;20049;-61
2022/03/11 04:12:39;;;;;;;19.73;7.97;;;7.00;81.50;;;;;;5035234;28;20036;-62
2022/03/11 04:15:07;;;;;;;17.38;7.97;;;7.00;81.50;;;;;;5035598;28;20029;-62
2022/03/11 04:17:32;;;;;;;18.02;7.25;;;7.00;82.20;;;;;;5034128;28;20117;-62
2022/03/11 04:19:59;;;;;;;21.13;7.72;;;7.00;82.70;;;;;;5034603;28;20100;-62
2022/03/11 04:22:25;;;;;;;17.58;6.63;;;7.00;83.40;;;;;;5035844;28;20464;-63
2022/03/11 04:24:51;;;;;;;18.48;6.72;;;7.00;83.00;;;;;;5035088;28;20468;-62
2022/03/11 04:27:17;;;;;;;21.02;7.75;;;6.90;82.90;;;;;;5035041;28;20112;-62
2022/03/11 04:29:42;;;;;;;19.10;7.50;;;7.00;82.50;;;;;;5034994;28;20461;-62
2022/03/11 04:32:08;;;;;;;17.20;6.90;;;7.00;82.90;;;;;;5026248;28;20144;-62
2022/03/11 04:34:34;;;;;;;17.77;6.93;;;6.90;82.90;;;;;;5035469;28;20429;-62
2022/03/11 04:37:00;;;;;;;18.85;7.43;;;6.90;83.10;;;;;;5029445;28;20104;-62
2022/03/11 04:39:26;;;;;;;15.65;6.70;;;6.90;82.70;;;;;;5034049;28;20420;-62
2022/03/11 04:41:53;;;;;;;16.52;7.13;;;6.90;83.30;;;;;;5033412;28;20080;-62
2022/03/11 04:44:19;;;;;;;20.23;7.78;;;6.90;82.80;;;;;;5035198;28;20025;-62
2022/03/11 04:46:45;;;;;;;18.23;7.70;;;6.90;83.20;;;;;;5034708;28;20033;-62
2022/03/11 04:49:11;;;;;;;17.55;7.03;;;6.80;83.00;;;;;;5035162;28;20099;-62
2022/03/11 04:51:36;;;;;;;20.63;8.73;;;6.80;83.40;;;;;;5024107;28;20138;-62
2022/03/11 04:54:03;;;;;;;18.67;7.20;;;6.80;82.80;;;;;;5034158;28;20021;-63
2022/03/11 04:56:30;;;;;;;19.98;7.55;;;6.80;82.70;;;;;;5034980;28;20130;-63
2022/03/11 04:58:56;;;;;;;19.52;6.75;;;6.80;83.00;;;;;;5035008;28;20021;-62
2022/03/11 05:01:21;;;;;;;17.85;6.78;;;6.80;82.60;;;;;;5034673;28;20386;-61
2022/03/11 05:03:47;;;;;;;19.10;7.30;;;6.80;82.70;;;;;;5035162;28;20378;-63
2022/03/11 05:06:13;;;;;;;17.85;7.15;;;6.80;83.20;;;;;;5034432;28;20122;-61
2022/03/11 05:08:38;;;;;;;16.08;6.68;;;6.80;83.70;;;;;;5030057;28;20041;-63
2022/03/11 05:11:04;;;;;;;18.02;7.68;;;6.80;83.00;;;;;;5030977;28;20362;-62
2022/03/11 05:13:30;;;;;;;16.50;6.25;;;6.80;82.80;;;;;;5034064;28;20017;-63
2022/03/11 05:15:56;;;;;;;15.40;6.78;;;6.80;83.10;;;;;;5033989;28;20040;-62
2022/03/11 05:18:21;;;;;;;18.40;6.50;;;6.80;83.10;;;;;;5034255;28;20029;-62
2022/03/11 05:20:47;;;;;;;21.20;7.28;;;6.80;82.90;;;;;;5033970;28;20025;-62
2022/03/11 05:23:13;;;;;;;17.83;7.05;;;6.80;82.60;;;;;;5034022;28;20048;-62
2022/03/11 05:25:39;;;;;;;15.35;6.38;;;6.80;82.90;;;;;;5034509;28;20414;-62
2022/03/11 05:28:04;;;;;;;17.45;6.90;;;6.80;83.40;;;;;;5034803;28;20044;-62
2022/03/11 05:30:30;;;;;;;15.52;6.63;;;6.80;82.80;;;;;;5030381;28;20417;-62
2022/03/11 05:32:56;;;;;;;15.45;6.32;;;6.80;82.70;;;;;;5034467;28;20025;-62
2022/03/11 05:35:22;;;;;;;15.68;6.65;;;6.80;83.30;;;;;;5034426;28;20041;-62
2022/03/11 05:37:47;;;;;;;17.17;6.60;;;6.70;83.20;;;;;;5033792;28;20104;-63
2022/03/11 05:40:13;;;;;;;16.00;5.80;;;6.70;83.00;;;;;;5035078;28;20048;-62
2022/03/11 05:42:39;;;;;;;17.00;6.80;;;6.70;83.20;;;;;;5034408;28;20029;-63
2022/03/11 05:45:07;;;;;;;15.85;6.75;;;6.70;83.50;;;;;;5034056;28;20025;-62
2022/03/11 05:47:33;;;;;;;15.98;6.55;;;6.70;84.00;;;;;;5033893;28;20091;-62
2022/03/11 05:49:59;;;;;;;17.63;6.88;;;6.70;83.60;;;;;;5034743;28;20025;-63
2022/03/11 05:52:25;;;;;;;15.98;6.45;;;6.70;83.60;;;;;;5030169;28;20018;-63
2022/03/11 05:54:51;;;;;;;15.23;6.53;;;6.70;84.00;;;;;;5015140;28;20113;-62
2022/03/11 05:57:17;;;;;;;19.88;7.03;;;6.60;84.30;;;;;;5033037;28;20362;-62
2022/03/11 05:59:43;;;;;;;17.63;6.57;;;6.60;84.10;;;;;;5034383;28;20083;-63
2022/03/11 06:02:08;;;;;;;15.77;6.38;;;6.60;84.20;;;;;;5034180;28;20392;-62
2022/03/11 06:04:34;;;;;;;19.55;7.18;;;6.60;84.70;;;;;;5034327;28;20438;-62
2022/03/11 06:07:00;;;;;;;22.27;8.30;;;6.60;85.00;;;;;;5033620;28;20036;-62
2022/03/11 06:09:26;;;;;;;17.02;7.15;;;6.60;85.20;;;;;;5033408;28;20417;-63
2022/03/11 06:11:53;;;;;;;16.10;6.70;;;6.60;85.10;;;;;;5029422;28;20104;-62
2022/03/11 06:14:19;;;;;;;16.55;7.07;;;6.50;85.60;;;;;;5012679;28;20026;-61
2022/03/11 06:16:44;;;;;;;18.00;7.47;;;6.50;85.90;;;;;;5028460;28;20067;-63
2022/03/11 06:19:10;;;;;;;17.50;6.90;;;6.50;85.60;;;;;;5033882;28;20034;-62
2022/03/11 06:21:36;;;;;;;18.67;6.80;;;6.50;85.90;;;;;;5033727;28;20032;-62
2022/03/11 06:24:03;;;;;;;15.18;6.15;;;6.50;86.10;;;;;;5033284;28;20042;-61
2022/03/11 06:26:28;;;;;;;20.52;6.53;;;6.50;86.40;;;;;;5031495;28;20032;-62
2022/03/11 06:28:54;;;;;;;18.30;7.97;;;6.60;86.50;;;;;;5031844;28;20041;-62
2022/03/11 06:31:19;;;;;;;19.30;6.95;;;6.50;86.60;;;;;;5032101;28;20026;-62
2022/03/11 06:33:45;;;;;;;19.35;8.13;;;6.50;86.70;;;;;;5033326;28;20116;-62
2022/03/11 06:36:10;;;;;;;19.38;7.00;;;6.50;86.90;;;;;;5032813;28;20061;-61
2022/03/11 06:38:36;;;;;;;19.20;7.22;;;6.60;87.10;;;;;;5033009;28;20133;-63
2022/03/11 06:41:02;;;;;;;18.73;7.97;;;6.60;87.20;;;;;;5033004;28;20083;-62
2022/03/11 06:43:27;;;;;;;17.20;6.55;;;6.60;87.40;;;;;;5033048;28;20026;-62
2022/03/11 06:45:54;;;;;;;16.83;7.28;;;6.60;87.60;;;;;;5019153;28;20030;-62
2022/03/11 06:48:21;;;;;;;17.60;6.30;;;6.60;87.70;;;;;;5031537;28;20128;-62
2022/03/11 06:50:47;;;;;;;16.38;6.53;;;6.60;88.40;;;;;;5033060;28;20091;-63
2022/03/11 06:53:13;;;;;;;15.35;7.05;;;6.70;87.80;;;;;;5033640;28;20025;-62
2022/03/11 06:55:38;;;;;;;16.30;7.03;;;6.70;88.10;;;;;;5032883;28;20033;-62
2022/03/11 06:58:04;;;;;;;20.92;8.65;;;6.70;88.20;;;;;;5032901;28;20029;-63
2022/03/11 07:00:30;;;;;;;16.85;6.15;;;6.80;88.30;;;;;;5033337;28;20029;-67
2022/03/11 07:02:55;;;;;;;17.40;6.82;;;6.80;88.20;;;;;;5032385;28;20070;-66
2022/03/11 07:05:21;;;;;;;24.08;9.52;;;6.80;88.50;;;;;;5022705;28;20029;-66
2022/03/11 07:07:46;;;;;;;18.73;7.57;;;6.90;88.40;;;;;;5032127;28;20053;-65
2022/03/11 07:10:12;;;;;;;21.73;7.55;;;7.00;88.00;;;;;;5040415;28;20470;-64
2022/03/11 07:12:38;;;;;;;23.13;9.35;;;7.00;88.20;;;;;;5030357;28;20500;-62
2022/03/11 07:15:06;;;;;;;21.13;7.50;;;7.10;88.30;;;;;;5031927;28;20028;-62
2022/03/11 07:17:32;;;;;;;18.20;6.75;;;7.10;88.10;;;;;;5027609;28;20036;-66
2022/03/11 07:19:58;;;;;;;17.67;6.88;;;7.20;88.40;;;;;;5015561;28;20025;-63
2022/03/11 07:22:25;;;;;;;15.63;6.80;;;7.30;87.80;;;;;;5014924;28;20030;-62
2022/03/11 07:24:50;;;;;;;16.33;6.47;;;7.30;87.70;;;;;;5026294;28;20121;-62
2022/03/11 07:27:16;;;;;;;20.30;7.15;;;7.30;87.60;;;;;;5032115;28;20116;-64
2022/03/11 07:29:42;;;;;;;14.63;6.25;;;7.50;87.60;;;;;;5032014;28;20474;-64
2022/03/11 07:32:09;;;;;;;15.43;6.95;;;7.50;87.20;;;;;;5032657;28;20492;-63
2022/03/11 07:34:35;;;;;;;17.45;7.10;;;7.60;87.30;;;;;;5032707;28;20024;-62
2022/03/11 07:37:01;;;;;;;15.40;6.18;;;7.70;87.10;;;;;;5016096;28;20026;-66
2022/03/11 07:39:27;;;;;;;18.65;7.18;;;7.80;86.90;;;;;;5027972;28;20473;-63
2022/03/11 07:41:52;;;;;;;16.60;7.47;;;7.80;86.80;;;;;;5036109;28;20035;-63
2022/03/11 07:44:18;;;;;;;17.42;7.05;;;7.90;87.20;;;;;;5036642;28;20350;-65
2022/03/11 07:46:44;;;;;;;16.10;6.85;;;8.00;87.30;;;;;;5039748;28;20026;-62
2022/03/11 07:49:11;;;;;;;16.73;5.78;;;8.10;86.20;;;;;;5045896;28;20048;-61
2022/03/11 07:51:37;;;;;;;18.52;7.13;;;8.20;85.80;;;;;;5036872;28;20099;-65
2022/03/11 07:54:03;;;;;;;17.60;7.32;;;8.30;85.60;;;;;;5037080;28;20033;-64
2022/03/11 07:56:28;;;;;;;17.50;7.18;;;8.40;85.30;;;;;;5035885;28;20029;-62
2022/03/11 07:58:56;;;;;;;16.85;7.68;;;8.50;85.10;;;;;;5045173;28;20454;-62
2022/03/11 08:01:21;;;;;;;19.70;7.68;;;8.60;84.80;;;;;;5056804;28;20050;-64
2022/03/11 08:03:47;;;;;;;17.48;7.85;;;8.70;84.60;;;;;;5039020;28;20470;-64
2022/03/11 08:06:13;;;;;;;18.40;7.35;;;8.80;84.40;;;;;;5028172;28;20040;-64
2022/03/11 08:08:39;;;;;;;18.20;7.57;;;8.90;84.30;;;;;;5034581;28;20033;-62
2022/03/11 08:11:05;;;;;;;17.15;6.63;;;9.10;83.90;;;;;;5035916;28;20017;-62
2022/03/11 08:13:31;;;;;;;17.25;6.93;;;9.30;83.60;;;;;;5036407;28;20034;-61
2022/03/11 08:15:57;;;;;;;18.08;7.93;;;9.50;83.10;;;;;;5051889;28;20057;-65
2022/03/11 08:18:22;;;;;;;17.63;7.90;;;9.80;82.90;;;;;;5036246;28;20079;-61
2022/03/11 08:20:48;;;;;;;17.50;7.15;;;10.20;81.90;;;;;;5036651;28;20091;-61
2022/03/11 08:23:15;;;;;;;15.10;6.82;;;10.80;80.20;;;;;;5034170;28;20068;-65
2022/03/11 08:25:41;;;;;;;16.48;7.45;;;11.30;78.10;;;;;;5035109;28;20050;-62
2022/03/11 08:28:10;;;;;;;17.88;8.30;;;11.80;77.20;;;;;;5036136;28;20513;-63
2022/03/11 08:30:40;;;;;;;18.58;7.97;;;12.40;75.80;;;;;;5035485;28;20100;-65
2022/03/11 08:33:06;;;;;;;16.90;7.40;;;13.20;74.20;;;;;;5031843;28;20433;-64
2022/03/11 08:35:32;;;;;;;18.63;8.02;;;13.80;72.00;;;;;;5035489;28;20030;-62
2022/03/11 08:37:58;;;;;;;20.35;8.95;;;14.50;70.20;;;;;;5035117;28;20084;-63
2022/03/11 08:40:26;;;;;;;16.60;7.30;;;15.10;68.70;;;;;;5035209;28;20112;-65
2022/03/11 08:42:52;;;;;;;18.25;8.10;;;15.60;66.70;;;;;;5031092;28;20420;-65
2022/03/11 08:45:21;;;;;;;19.65;8.18;;;15.90;65.20;;;;;;5036308;28;20033;-65
2022/03/11 08:47:47;;;;;;;18.33;8.35;;;16.00;64.60;;;;;;5026228;28;20037;-65
2022/03/11 08:50:13;;;;;;;16.40;7.57;;;16.40;64.00;;;;;;5034474;28;20033;-64
2022/03/11 08:52:38;;;;;;;16.65;8.10;;;16.70;62.30;;;;;;5035575;28;20021;-65
2022/03/11 08:55:04;;;;;;;16.02;8.00;;;17.00;62.30;;;;;;5033935;28;20367;-66
2022/03/11 08:57:30;;;;;;;16.08;7.65;;;17.60;60.90;;;;;;5034350;28;20037;-63
2022/03/11 08:59:56;;;;;;;16.80;7.78;;;17.90;59.70;;;;;;5036469;28;20045;-63
2022/03/11 09:02:23;;;;;;;17.45;8.02;;;18.20;58.60;;;;;;5033281;28;20110;-62
2022/03/11 09:04:49;;;;;;;20.17;8.93;;;18.50;58.00;;;;;;5033119;28;20029;-63
2022/03/11 09:07:15;;;;;;;18.67;8.23;;;18.70;57.60;;;;;;5033830;28;20021;-63
2022/03/11 09:09:41;;;;;;;13.77;6.63;;;19.00;57.10;;;;;;5033243;28;20029;-65
2022/03/11 09:12:07;;;;;;;18.15;8.18;;;19.30;56.10;;;;;;5031625;28;20103;-62
2022/03/11 09:14:33;;;;;;;20.52;8.77;;;19.30;56.10;;;;;;5035136;28;20048;-65
2022/03/11 09:17:00;;;;;;;22.33;9.52;;;19.60;55.60;;;;;;5033620;28;20033;-65
2022/03/11 09:19:26;;;;;;;19.63;9.27;;;19.90;54.50;;;;;;5033172;28;20026;-63
2022/03/11 09:21:52;;;;;;;18.58;8.88;;;20.20;53.90;;;;;;5030746;28;20022;-66
2022/03/11 09:24:18;;;;;;;18.55;8.80;;;20.60;53.70;;;;;;5033125;28;20045;-63
2022/03/11 09:26:48;;;;;;;17.52;6.95;;;20.60;52.80;;;;;;5032716;28;20025;-66
2022/03/11 09:29:13;;;;;;;19.00;9.55;;;20.20;53.50;;;;;;5033476;28;20108;-65
2022/03/11 09:31:39;;;;;;;19.25;9.25;;;19.70;53.40;;;;;;5032468;28;20030;-64
2022/03/11 09:34:05;;;;;;;23.65;9.13;;;19.60;53.60;;;;;;5032283;28;20363;-64
2022/03/11 09:36:31;;;;;;;18.80;9.27;;;19.70;53.60;;;;;;5038775;28;20034;-64
2022/03/11 09:38:56;;;;;;;20.70;9.32;;;19.80;53.60;;;;;;5035063;28;20033;-66
2022/03/11 09:41:27;;;;;;;17.10;9.20;;;20.20;52.90;;;;;;5034760;28;20026;-63
2022/03/11 09:43:55;;;;;;;18.52;9.27;;;20.70;52.40;;;;;;5033862;28;21345;-62
2022/03/11 09:46:21;;;;;;;20.95;9.55;;;21.20;51.90;;;;;;5034905;28;20109;-62
2022/03/11 09:48:47;;;;;;;16.17;8.60;;;21.80;51.30;;;;;;5032184;28;20176;-62
2022/03/11 09:51:13;;;;;;;18.48;9.63;;;21.80;50.20;;;;;;5034298;28;20072;-63
2022/03/11 09:53:40;;;;;;;18.65;9.27;;;21.80;50.10;;;;;;5034092;28;20049;-62
2022/03/11 09:56:06;;;;;;;20.40;9.30;;;21.40;50.40;;;;;;5034206;28;20038;-66
2022/03/11 09:58:32;;;;;;;16.17;9.05;;;21.30;50.60;;;;;;5034393;28;20037;-62
2022/03/11 10:00:58;;;;;;;17.25;9.25;;;21.30;50.70;;;;;;5034502;28;20025;-62
2022/03/11 10:03:23;;;;;;;17.88;8.95;;;21.30;50.50;;;;;;5033252;28;20040;-62
2022/03/11 10:05:51;;;;;;;22.00;10.00;;;21.20;50.20;;;;;;5034154;28;20100;-63
2022/03/11 10:08:33;;;;;;;20.10;9.63;;;21.20;50.70;;;;;;5034064;28;20041;-63
2022/03/11 10:11:22;;;;;;;18.77;8.85;;;21.30;50.80;;;;;;5032966;28;20109;-65
2022/03/11 10:13:48;;;;;;;17.58;9.27;;;21.40;50.50;;;;;;5031933;28;20466;-62
2022/03/11 10:16:25;;;;;;;19.75;9.95;;;21.30;50.40;;;;;;5029857;28;20048;-64
2022/03/11 10:19:08;;;;;;;18.63;9.57;;;21.30;50.60;;;;;;5033127;28;20025;-66
2022/03/11 10:21:42;;;;;;;20.10;9.50;;;21.20;50.60;;;;;;5042815;28;20047;-65
2022/03/11 10:24:20;;;;;;;18.90;9.45;;;21.20;50.60;;;;;;5059927;28;20816;-65
2022/03/11 10:26:51;;;;;;;18.00;8.87;;;21.20;50.70;;;;;;5033118;28;20092;-64
2022/03/11 10:29:31;;;;;;;14.90;7.63;;;21.20;50.40;;;;;;5032550;28;20061;-64
2022/03/11 10:31:58;;;;;;;19.40;9.23;;;21.20;50.60;;;;;;5023780;28;20034;-67
2022/03/11 10:34:25;;;;;;;19.10;9.35;;;21.30;50.60;;;;;;5028059;28;20022;-65
2022/03/11 10:36:52;;;;;;;20.23;9.48;;;21.30;50.60;;;;;;5026783;28;20100;-64
2022/03/11 10:39:21;;;;;;;19.75;9.68;;;21.10;50.90;;;;;;5030853;28;20037;-64
2022/03/11 10:41:49;;;;;;;16.35;9.10;;;21.00;50.90;;;;;;5035872;28;20470;-65
2022/03/11 10:44:18;;;;;;;19.17;10.00;;;20.70;51.20;;;;;;5031827;28;20033;-62
2022/03/11 10:46:43;;;;;;;18.55;9.50;;;20.40;51.90;;;;;;5039794;28;20029;-63
2022/03/11 10:49:09;;;;;;;19.67;9.35;;;20.70;51.80;;;;;;5049350;28;20029;-67
2022/03/11 10:51:38;;;;;;;18.80;9.38;;;21.20;51.30;;;;;;5040432;28;20035;-66
2022/03/11 10:54:07;;;;;;;19.50;9.23;;;21.60;51.10;;;;;;5036278;28;20398;-65
2022/03/11 10:56:39;;;;;;;20.80;9.65;;;21.70;50.60;;;;;;5031615;28;20059;-63
2022/03/11 10:59:06;;;;;;;20.50;9.63;;;21.80;50.80;;;;;;5028924;28;20644;-63
2022/03/11 11:01:39;;;;;;;22.40;10.25;;;21.80;50.70;;;;;;5028477;28;20022;-63
2022/03/11 11:04:07;;;;;;;19.23;9.57;;;21.90;50.90;;;;;;5045070;28;20390;-64
2022/03/11 11:06:34;;;;;;;19.60;9.70;;;22.00;50.50;;;;;;5031548;28;20553;-66
2022/03/11 11:09:01;;;;;;;18.92;9.85;;;21.70;51.00;;;;;;5023998;28;20021;-63
2022/03/11 11:11:28;;;;;;;19.40;10.57;;;21.60;51.40;;;;;;5029045;28;20076;-64
2022/03/11 11:13:53;;;;;;;18.35;10.23;;;21.80;51.40;;;;;;5035426;28;20021;-63
2022/03/11 11:16:24;;;;;;;21.58;9.38;;;22.40;50.60;;;;;;5035819;28;20386;-62
2022/03/11 11:18:51;;;;;;;17.98;10.15;;;22.40;50.50;;;;;;5028762;28;20017;-62
2022/03/11 11:21:24;;;;;;;21.13;11.23;;;22.20;50.80;;;;;;5028477;28;20037;-62
2022/03/11 11:23:54;;;;;;;19.58;10.65;;;22.40;51.10;;;;;;5028564;28;20050;-63
2022/03/11 11:26:22;;;;;;;20.25;10.35;;;22.70;50.60;;;;;;5028830;28;20504;-64
2022/03/11 11:28:50;;;;;;;18.40;10.02;;;22.90;50.10;;;;;;5029376;28;20026;-64
2022/03/11 11:31:18;;;;;;;20.60;11.13;;;22.70;50.00;;;;;;5028336;28;20083;-64
2022/03/11 11:33:45;;;;;;;20.52;10.77;;;22.60;50.50;;;;;;5024063;28;20030;-65
2022/03/11 11:36:10;;;;;;;19.33;9.57;;;22.70;50.40;;;;;;5020803;28;20091;-65
2022/03/11 11:38:38;;;;;;;20.40;10.98;;;22.90;50.20;;;;;;5026761;28;20034;-63
2022/03/11 11:41:25;;;;;;;19.65;10.95;;;22.80;50.20;;;;;;5026995;28;20033;-61
2022/03/11 11:43:57;;;;;;;21.40;11.05;;;23.10;50.60;;;;;;5022907;28;20124;-66
2022/03/11 11:46:23;;;;;;;;;;;23.40;49.70;;;;;;5032847;28;20453;-64
2022/03/11 11:48:48;;;;;;;23.25;11.20;;;23.50;49.70;;;;;;5019718;28;19953;-62
2022/03/11 11:51:16;;;;;;;18.98;10.10;;;23.40;50.00;;;;;;5015159;28;20061;-66
2022/03/11 11:53:48;;;;;;;18.30;9.40;;;23.40;49.60;;;;;;5014957;28;20370;-66
2022/03/11 11:56:37;;;;;;;21.33;10.35;;;23.20;49.90;;;;;;5015881;28;20030;-63
2022/03/11 11:59:36;;;;;;;21.02;10.43;;;22.80;50.20;;;;;;5014713;28;20030;-62
2022/03/11 12:02:22;;;;;;;20.15;10.48;;;22.90;50.00;;;;;;5012300;28;20033;-65
2022/03/11 12:04:48;;;;;;;18.38;9.40;;;22.90;50.20;;;;;;5022761;28;20017;-61
2022/03/11 12:07:14;;;;;;;19.08;9.13;;;22.50;50.80;;;;;;5012348;28;20501;-63
2022/03/11 12:09:40;;;;;;;19.55;10.40;;;22.50;50.60;;;;;;5033750;28;20481;-62
2022/03/11 12:12:09;;;;;;;18.17;10.20;;;22.50;50.90;;;;;;5029951;28;20034;-65
2022/03/11 12:15:08;;;;;;;19.25;9.90;;;22.40;50.80;;;;;;5015079;28;20022;-67
2022/03/11 12:17:59;;;;;;;19.83;10.55;;;22.40;50.80;;;;;;4992736;28;20038;-64
2022/03/11 12:20:48;;;;;;;21.55;10.38;;;22.50;51.00;;;;;;5015033;28;20388;-62
2022/03/11 12:23:17;;;;;;;19.17;10.27;;;22.50;50.90;;;;;;5019599;28;20054;-63
2022/03/11 12:26:02;;;;;;;20.70;10.90;;;22.40;51.20;;;;;;5017107;28;20145;-66
2022/03/11 12:28:35;;;;;;;19.70;10.27;;;22.50;51.00;;;;;;5021998;28;20486;-62
2022/03/11 12:31:02;;;;;;;19.17;11.10;;;22.60;50.50;;;;;;5027610;28;20022;-63
2022/03/11 12:33:39;;;;;;;19.85;11.05;;;22.40;50.90;;;;;;5016935;28;20033;-62
2022/03/11 12:36:25;;;;;;;27.50;11.25;;;22.50;50.80;;;;;;5022862;28;20119;-64
2022/03/11 12:38:52;;;;;;;20.73;10.52;;;22.60;50.50;;;;;;5015151;28;20030;-65
2022/03/11 12:41:27;;;;;;;19.88;10.63;;;22.80;50.50;;;;;;5021198;28;20018;-63
2022/03/11 12:43:57;;;;;;;19.95;11.20;;;22.70;50.60;;;;;;5010181;28;20041;-62